sensor_id;sensor_type;location;lat;lon;timestamp;P1;durP1;ratioP1;P2;durP2;ratioP2
31836;SDS011;18401;49.344;6.240;2023-02-28T00:00:03;3.60;;;2.78;;
31836;SDS011;18401;49.344;6.240;2023-02-28T00:02:41;2.70;;;2.45;;
31836;SDS011;18401;49.344;6.240;2023-02-28T00:05:09;3.67;;;2.67;;
31836;SDS011;18401;49.344;6.240;2023-02-28T00:07:36;2.97;;;2.53;;
31836;SDS011;18401;49.344;6.240;2023-02-28T00:10:02;4.20;;;2.30;;
31836;SDS011;18401;49.344;6.240;2023-02-28T00:12:29;4.90;;;2.55;;
31836;SDS011;18401;49.344;6.240;2023-02-28T00:14:55;7.97;;;2.50;;
31836;SDS011;18401;49.344;6.240;2023-02-28T00:17:20;4.72;;;2.78;;
31836;SDS011;18401;49.344;6.240;2023-02-28T00:19:47;3.03;;;2.50;;
31836;SDS011;18401;49.344;6.240;2023-02-28T00:22:14;6.50;;;2.45;;
31836;SDS011;18401;49.344;6.240;2023-02-28T00:24:40;2.90;;;2.67;;
31836;SDS011;18401;49.344;6.240;2023-02-28T00:27:06;3.00;;;2.20;;
31836;SDS011;18401;49.344;6.240;2023-02-28T00:29:32;3.45;;;2.40;;
31836;SDS011;18401;49.344;6.240;2023-02-28T00:31:57;3.53;;;2.13;;
31836;SDS011;18401;49.344;6.240;2023-02-28T00:34:23;3.95;;;2.17;;
31836;SDS011;18401;49.344;6.240;2023-02-28T00:36:49;2.15;;;2.00;;
31836;SDS011;18401;49.344;6.240;2023-02-28T00:39:15;2.47;;;1.90;;
31836;SDS011;18401;49.344;6.240;2023-02-28T00:41:40;3.58;;;2.20;;
31836;SDS011;18401;49.344;6.240;2023-02-28T00:44:06;2.38;;;2.17;;
31836;SDS011;18401;49.344;6.240;2023-02-28T00:46:32;3.70;;;2.03;;
31836;SDS011;18401;49.344;6.240;2023-02-28T00:48:57;2.40;;;2.20;;
31836;SDS011;18401;49.344;6.240;2023-02-28T00:51:23;2.58;;;2.20;;
31836;SDS011;18401;49.344;6.240;2023-02-28T00:53:49;3.42;;;2.20;;
31836;SDS011;18401;49.344;6.240;2023-02-28T00:56:14;2.80;;;2.15;;
31836;SDS011;18401;49.344;6.240;2023-02-28T00:58:40;2.92;;;2.30;;
31836;SDS011;18401;49.344;6.240;2023-02-28T01:01:06;2.80;;;2.30;;
31836;SDS011;18401;49.344;6.240;2023-02-28T01:03:32;4.20;;;2.55;;
31836;SDS011;18401;49.344;6.240;2023-02-28T01:05:57;4.63;;;2.33;;
31836;SDS011;18401;49.344;6.240;2023-02-28T01:08:23;5.65;;;2.78;;
31836;SDS011;18401;49.344;6.240;2023-02-28T01:10:51;8.73;;;2.65;;
31836;SDS011;18401;49.344;6.240;2023-02-28T01:13:17;3.40;;;2.78;;
31836;SDS011;18401;49.344;6.240;2023-02-28T01:15:45;3.08;;;2.78;;
31836;SDS011;18401;49.344;6.240;2023-02-28T01:18:19;6.82;;;3.58;;
31836;SDS011;18401;49.344;6.240;2023-02-28T01:20:46;8.73;;;3.45;;
31836;SDS011;18401;49.344;6.240;2023-02-28T01:23:11;6.68;;;2.88;;
31836;SDS011;18401;49.344;6.240;2023-02-28T01:25:37;6.57;;;3.00;;
31836;SDS011;18401;49.344;6.240;2023-02-28T01:28:03;2.75;;;2.45;;
31836;SDS011;18401;49.344;6.240;2023-02-28T01:30:29;3.65;;;2.83;;
31836;SDS011;18401;49.344;6.240;2023-02-28T01:32:55;6.68;;;2.78;;
31836;SDS011;18401;49.344;6.240;2023-02-28T01:35:21;4.20;;;2.50;;
31836;SDS011;18401;49.344;6.240;2023-02-28T01:37:46;2.50;;;2.30;;
31836;SDS011;18401;49.344;6.240;2023-02-28T01:40:12;7.50;;;2.85;;
31836;SDS011;18401;49.344;6.240;2023-02-28T04:36:31;6.00;;;3.30;;
31836;SDS011;18401;49.344;6.240;2023-02-28T04:38:57;4.05;;;3.45;;
31836;SDS011;18401;49.344;6.240;2023-02-28T04:41:23;4.45;;;3.38;;
31836;SDS011;18401;49.344;6.240;2023-02-28T04:43:50;8.57;;;3.97;;
31836;SDS011;18401;49.344;6.240;2023-02-28T04:46:17;6.38;;;3.80;;
31836;SDS011;18401;49.344;6.240;2023-02-28T04:48:43;5.93;;;4.28;;
31836;SDS011;18401;49.344;6.240;2023-02-28T04:51:11;8.15;;;3.75;;
31836;SDS011;18401;49.344;6.240;2023-02-28T04:53:38;5.53;;;3.75;;
31836;SDS011;18401;49.344;6.240;2023-02-28T04:56:06;10.13;;;4.13;;
31836;SDS011;18401;49.344;6.240;2023-02-28T04:58:33;6.78;;;4.22;;
31836;SDS011;18401;49.344;6.240;2023-02-28T05:01:03;4.57;;;3.47;;
31836;SDS011;18401;49.344;6.240;2023-02-28T05:03:37;5.75;;;3.65;;
31836;SDS011;18401;49.344;6.240;2023-02-28T05:06:05;5.25;;;3.60;;
31836;SDS011;18401;49.344;6.240;2023-02-28T05:08:31;3.75;;;3.45;;
31836;SDS011;18401;49.344;6.240;2023-02-28T05:10:57;4.13;;;3.50;;
31836;SDS011;18401;49.344;6.240;2023-02-28T05:13:23;4.63;;;3.80;;
31836;SDS011;18401;49.344;6.240;2023-02-28T05:15:49;4.22;;;3.33;;
31836;SDS011;18401;49.344;6.240;2023-02-28T05:18:15;3.90;;;3.53;;
31836;SDS011;18401;49.344;6.240;2023-02-28T05:20:40;3.95;;;3.42;;
31836;SDS011;18401;49.344;6.240;2023-02-28T05:23:06;6.25;;;3.55;;
31836;SDS011;18401;49.344;6.240;2023-02-28T05:25:33;8.68;;;3.78;;
31836;SDS011;18401;49.344;6.240;2023-02-28T05:27:58;3.60;;;3.30;;
31836;SDS011;18401;49.344;6.240;2023-02-28T05:30:24;3.47;;;3.05;;
31836;SDS011;18401;49.344;6.240;2023-02-28T05:32:50;5.07;;;3.28;;
31836;SDS011;18401;49.344;6.240;2023-02-28T05:35:16;3.92;;;3.28;;
31836;SDS011;18401;49.344;6.240;2023-02-28T05:37:42;5.38;;;3.58;;
31836;SDS011;18401;49.344;6.240;2023-02-28T05:40:08;3.83;;;3.45;;
31836;SDS011;18401;49.344;6.240;2023-02-28T05:42:35;6.97;;;3.50;;
31836;SDS011;18401;49.344;6.240;2023-02-28T05:45:01;17.38;;;6.43;;
31836;SDS011;18401;49.344;6.240;2023-02-28T05:47:27;24.67;;;7.00;;
31836;SDS011;18401;49.344;6.240;2023-02-28T05:49:52;17.50;;;6.15;;
31836;SDS011;18401;49.344;6.240;2023-02-28T05:52:18;6.93;;;4.80;;
31836;SDS011;18401;49.344;6.240;2023-02-28T05:54:44;6.03;;;4.60;;
31836;SDS011;18401;49.344;6.240;2023-02-28T05:57:12;6.53;;;4.90;;
31836;SDS011;18401;49.344;6.240;2023-02-28T05:59:37;8.85;;;4.60;;
31836;SDS011;18401;49.344;6.240;2023-02-28T06:02:05;8.13;;;4.70;;
31836;SDS011;18401;49.344;6.240;2023-02-28T06:04:35;11.35;;;5.90;;
31836;SDS011;18401;49.344;6.240;2023-02-28T06:07:01;6.43;;;4.82;;
31836;SDS011;18401;49.344;6.240;2023-02-28T06:09:27;10.55;;;5.72;;
31836;SDS011;18401;49.344;6.240;2023-02-28T06:11:52;6.47;;;4.53;;
31836;SDS011;18401;49.344;6.240;2023-02-28T06:14:19;5.75;;;4.45;;
31836;SDS011;18401;49.344;6.240;2023-02-28T06:16:45;11.82;;;5.07;;
31836;SDS011;18401;49.344;6.240;2023-02-28T06:19:11;9.90;;;5.30;;
31836;SDS011;18401;49.344;6.240;2023-02-28T06:21:37;7.63;;;4.32;;
31836;SDS011;18401;49.344;6.240;2023-02-28T06:24:03;11.73;;;4.85;;
31836;SDS011;18401;49.344;6.240;2023-02-28T06:26:29;9.48;;;5.50;;
31836;SDS011;18401;49.344;6.240;2023-02-28T06:28:55;16.50;;;7.53;;
31836;SDS011;18401;49.344;6.240;2023-02-28T06:31:21;9.48;;;5.43;;
31836;SDS011;18401;49.344;6.240;2023-02-28T06:33:48;17.17;;;6.90;;
31836;SDS011;18401;49.344;6.240;2023-02-28T06:36:14;24.02;;;10.60;;
31836;SDS011;18401;49.344;6.240;2023-02-28T06:38:41;39.58;;;14.07;;
31836;SDS011;18401;49.344;6.240;2023-02-28T06:41:07;45.40;;;16.83;;
31836;SDS011;18401;49.344;6.240;2023-02-28T06:43:35;26.50;;;12.05;;
31836;SDS011;18401;49.344;6.240;2023-02-28T06:46:04;25.02;;;11.15;;
31836;SDS011;18401;49.344;6.240;2023-02-28T06:48:32;22.98;;;10.13;;
31836;SDS011;18401;49.344;6.240;2023-02-28T06:51:02;24.17;;;10.48;;
31836;SDS011;18401;49.344;6.240;2023-02-28T06:53:29;21.83;;;10.18;;
31836;SDS011;18401;49.344;6.240;2023-02-28T06:55:55;26.00;;;13.45;;
31836;SDS011;18401;49.344;6.240;2023-02-28T06:58:21;37.97;;;15.65;;
31836;SDS011;18401;49.344;6.240;2023-02-28T07:00:49;33.20;;;14.15;;
31836;SDS011;18401;49.344;6.240;2023-02-28T07:03:16;22.20;;;9.90;;
31836;SDS011;18401;49.344;6.240;2023-02-28T07:05:43;15.20;;;8.38;;
31836;SDS011;18401;49.344;6.240;2023-02-28T07:08:09;20.50;;;9.93;;
31836;SDS011;18401;49.344;6.240;2023-02-28T07:10:38;17.73;;;8.27;;
31836;SDS011;18401;49.344;6.240;2023-02-28T07:13:05;11.70;;;7.03;;
31836;SDS011;18401;49.344;6.240;2023-02-28T07:15:31;13.27;;;7.10;;
31836;SDS011;18401;49.344;6.240;2023-02-28T07:17:56;9.00;;;6.55;;
31836;SDS011;18401;49.344;6.240;2023-02-28T07:20:23;9.32;;;6.38;;
31836;SDS011;18401;49.344;6.240;2023-02-28T07:22:49;7.25;;;5.38;;
31836;SDS011;18401;49.344;6.240;2023-02-28T07:25:25;11.18;;;6.63;;
31836;SDS011;18401;49.344;6.240;2023-02-28T07:27:51;8.20;;;5.57;;
31836;SDS011;18401;49.344;6.240;2023-02-28T07:30:17;8.65;;;5.65;;
31836;SDS011;18401;49.344;6.240;2023-02-28T07:32:43;10.60;;;6.57;;
31836;SDS011;18401;49.344;6.240;2023-02-28T07:35:09;8.38;;;5.35;;
31836;SDS011;18401;49.344;6.240;2023-02-28T07:37:35;7.65;;;5.22;;
31836;SDS011;18401;49.344;6.240;2023-02-28T07:40:04;9.63;;;5.60;;
31836;SDS011;18401;49.344;6.240;2023-02-28T07:42:33;11.00;;;5.72;;
31836;SDS011;18401;49.344;6.240;2023-02-28T07:44:59;11.63;;;6.30;;
31836;SDS011;18401;49.344;6.240;2023-02-28T07:47:25;8.63;;;5.68;;
31836;SDS011;18401;49.344;6.240;2023-02-28T07:49:51;11.95;;;6.10;;
31836;SDS011;18401;49.344;6.240;2023-02-28T07:52:17;15.48;;;6.40;;
31836;SDS011;18401;49.344;6.240;2023-02-28T07:54:43;9.40;;;5.82;;
31836;SDS011;18401;49.344;6.240;2023-02-28T07:57:08;10.25;;;5.82;;
31836;SDS011;18401;49.344;6.240;2023-02-28T07:59:34;6.97;;;5.10;;
31836;SDS011;18401;49.344;6.240;2023-02-28T08:02:00;8.10;;;4.75;;
31836;SDS011;18401;49.344;6.240;2023-02-28T08:04:26;7.40;;;5.55;;
31836;SDS011;18401;49.344;6.240;2023-02-28T08:06:51;13.40;;;6.57;;
31836;SDS011;18401;49.344;6.240;2023-02-28T08:09:18;9.52;;;5.60;;
31836;SDS011;18401;49.344;6.240;2023-02-28T08:11:44;10.88;;;5.88;;
31836;SDS011;18401;49.344;6.240;2023-02-28T08:14:09;13.68;;;6.32;;
31836;SDS011;18401;49.344;6.240;2023-02-28T08:16:35;6.93;;;5.13;;
31836;SDS011;18401;49.344;6.240;2023-02-28T08:19:02;8.15;;;5.50;;
31836;SDS011;18401;49.344;6.240;2023-02-28T08:21:27;8.98;;;5.38;;
31836;SDS011;18401;49.344;6.240;2023-02-28T08:23:53;8.30;;;5.30;;
31836;SDS011;18401;49.344;6.240;2023-02-28T08:26:19;8.27;;;5.80;;
31836;SDS011;18401;49.344;6.240;2023-02-28T08:28:45;12.88;;;5.55;;
31836;SDS011;18401;49.344;6.240;2023-02-28T08:31:12;8.23;;;5.32;;
31836;SDS011;18401;49.344;6.240;2023-02-28T08:33:40;7.57;;;5.32;;
31836;SDS011;18401;49.344;6.240;2023-02-28T08:36:06;8.90;;;5.63;;
31836;SDS011;18401;49.344;6.240;2023-02-28T08:38:32;8.00;;;4.85;;
31836;SDS011;18401;49.344;6.240;2023-02-28T08:40:59;7.88;;;5.15;;
31836;SDS011;18401;49.344;6.240;2023-02-28T08:43:28;7.40;;;5.45;;
31836;SDS011;18401;49.344;6.240;2023-02-28T08:45:54;6.43;;;5.10;;
31836;SDS011;18401;49.344;6.240;2023-02-28T08:48:22;6.75;;;5.30;;
31836;SDS011;18401;49.344;6.240;2023-02-28T08:51:08;6.95;;;4.90;;
31836;SDS011;18401;49.344;6.240;2023-02-28T08:53:46;8.70;;;5.03;;
31836;SDS011;18401;49.344;6.240;2023-02-28T08:56:15;7.85;;;5.10;;
31836;SDS011;18401;49.344;6.240;2023-02-28T08:58:41;8.70;;;5.03;;
31836;SDS011;18401;49.344;6.240;2023-02-28T09:01:26;6.60;;;4.40;;
31836;SDS011;18401;49.344;6.240;2023-02-28T09:03:53;6.60;;;4.38;;
31836;SDS011;18401;49.344;6.240;2023-02-28T09:06:21;4.32;;;3.67;;
31836;SDS011;18401;49.344;6.240;2023-02-28T09:08:48;7.78;;;4.10;;
31836;SDS011;18401;49.344;6.240;2023-02-28T09:11:14;5.80;;;4.18;;
31836;SDS011;18401;49.344;6.240;2023-02-28T09:13:40;6.60;;;4.10;;
31836;SDS011;18401;49.344;6.240;2023-02-28T09:16:10;11.63;;;4.95;;
31836;SDS011;18401;49.344;6.240;2023-02-28T09:18:38;4.40;;;3.85;;
31836;SDS011;18401;49.344;6.240;2023-02-28T09:21:04;6.00;;;3.67;;
31836;SDS011;18401;49.344;6.240;2023-02-28T09:23:35;5.43;;;3.80;;
31836;SDS011;18401;49.344;6.240;2023-02-28T09:26:03;6.97;;;4.22;;
31836;SDS011;18401;49.344;6.240;2023-02-28T09:28:29;8.60;;;4.05;;
31836;SDS011;18401;49.344;6.240;2023-02-28T09:30:55;8.30;;;3.85;;
31836;SDS011;18401;49.344;6.240;2023-02-28T09:33:23;5.05;;;3.83;;
31836;SDS011;18401;49.344;6.240;2023-02-28T09:35:49;6.80;;;3.88;;
31836;SDS011;18401;49.344;6.240;2023-02-28T09:38:16;6.68;;;4.38;;
31836;SDS011;18401;49.344;6.240;2023-02-28T09:40:47;6.30;;;3.53;;
31836;SDS011;18401;49.344;6.240;2023-02-28T09:43:15;5.85;;;4.18;;
31836;SDS011;18401;49.344;6.240;2023-02-28T09:45:45;7.53;;;4.25;;
31836;SDS011;18401;49.344;6.240;2023-02-28T09:48:23;4.95;;;3.63;;
31836;SDS011;18401;49.344;6.240;2023-02-28T09:50:55;5.78;;;4.50;;
31836;SDS011;18401;49.344;6.240;2023-02-28T09:53:35;5.03;;;4.00;;
31836;SDS011;18401;49.344;6.240;2023-02-28T09:56:05;6.40;;;3.85;;
31836;SDS011;18401;49.344;6.240;2023-02-28T09:58:41;7.35;;;3.55;;
31836;SDS011;18401;49.344;6.240;2023-02-28T10:01:20;5.85;;;3.20;;
31836;SDS011;18401;49.344;6.240;2023-02-28T10:04:00;7.43;;;3.85;;
31836;SDS011;18401;49.344;6.240;2023-02-28T10:06:43;6.82;;;3.63;;
31836;SDS011;18401;49.344;6.240;2023-02-28T10:09:15;11.82;;;3.63;;
31836;SDS011;18401;49.344;6.240;2023-02-28T10:11:42;6.95;;;3.97;;
31836;SDS011;18401;49.344;6.240;2023-02-28T10:14:12;9.05;;;4.10;;
31836;SDS011;18401;49.344;6.240;2023-02-28T10:16:54;6.22;;;3.75;;
31836;SDS011;18401;49.344;6.240;2023-02-28T10:22:24;4.57;;;3.45;;
31836;SDS011;18401;49.344;6.240;2023-02-28T10:24:59;5.35;;;3.22;;
31836;SDS011;18401;49.344;6.240;2023-02-28T10:27:42;3.58;;;2.78;;
31836;SDS011;18401;49.344;6.240;2023-02-28T10:30:09;4.00;;;3.03;;
31836;SDS011;18401;49.344;6.240;2023-02-28T10:32:36;5.78;;;3.30;;
31836;SDS011;18401;49.344;6.240;2023-02-28T10:35:14;6.28;;;3.58;;
31836;SDS011;18401;49.344;6.240;2023-02-28T10:37:41;9.20;;;3.33;;
31836;SDS011;18401;49.344;6.240;2023-02-28T10:40:24;4.53;;;3.55;;
31836;SDS011;18401;49.344;6.240;2023-02-28T10:43:03;3.88;;;3.25;;
31836;SDS011;18401;49.344;6.240;2023-02-28T10:45:34;6.00;;;3.50;;
31836;SDS011;18401;49.344;6.240;2023-02-28T10:55:56;4.45;;;3.42;;
31836;SDS011;18401;49.344;6.240;2023-02-28T11:01:17;4.63;;;3.72;;
31836;SDS011;18401;49.344;6.240;2023-02-28T11:03:48;6.15;;;3.67;;
31836;SDS011;18401;49.344;6.240;2023-02-28T11:06:16;8.73;;;3.83;;
31836;SDS011;18401;49.344;6.240;2023-02-28T11:09:06;7.57;;;3.58;;
31836;SDS011;18401;49.344;6.240;2023-02-28T11:11:50;5.78;;;3.70;;
31836;SDS011;18401;49.344;6.240;2023-02-28T11:14:24;5.32;;;3.60;;
31836;SDS011;18401;49.344;6.240;2023-02-28T11:16:52;4.43;;;3.63;;
31836;SDS011;18401;49.344;6.240;2023-02-28T11:19:20;5.60;;;3.58;;
31836;SDS011;18401;49.344;6.240;2023-02-28T11:21:57;6.55;;;4.40;;
31836;SDS011;18401;49.344;6.240;2023-02-28T11:24:29;8.45;;;3.60;;
31836;SDS011;18401;49.344;6.240;2023-02-28T11:26:55;6.57;;;4.15;;
31836;SDS011;18401;49.344;6.240;2023-02-28T11:29:23;5.38;;;3.97;;
31836;SDS011;18401;49.344;6.240;2023-02-28T11:37:34;6.88;;;4.00;;
31836;SDS011;18401;49.344;6.240;2023-02-28T11:40:00;8.82;;;4.93;;
31836;SDS011;18401;49.344;6.240;2023-02-28T11:42:36;11.07;;;4.68;;
31836;SDS011;18401;49.344;6.240;2023-02-28T11:48:21;7.43;;;5.00;;
31836;SDS011;18401;49.344;6.240;2023-02-28T11:51:06;5.65;;;3.72;;
31836;SDS011;18401;49.344;6.240;2023-02-28T12:01:58;7.32;;;4.20;;
31836;SDS011;18401;49.344;6.240;2023-02-28T12:04:42;7.30;;;4.13;;
31836;SDS011;18401;49.344;6.240;2023-02-28T12:18:35;7.80;;;4.63;;
31836;SDS011;18401;49.344;6.240;2023-02-28T12:27:05;5.15;;;3.67;;
31836;SDS011;18401;49.344;6.240;2023-02-28T12:29:56;7.70;;;4.65;;
31836;SDS011;18401;49.344;6.240;2023-02-28T12:32:35;9.82;;;5.22;;
31836;SDS011;18401;49.344;6.240;2023-02-28T12:40:20;7.85;;;4.55;;
31836;SDS011;18401;49.344;6.240;2023-02-28T12:47:52;5.75;;;4.15;;
31836;SDS011;18401;49.344;6.240;2023-02-28T12:58:41;8.38;;;5.10;;
31836;SDS011;18401;49.344;6.240;2023-02-28T13:10:02;7.53;;;5.28;;
31836;SDS011;18401;49.344;6.240;2023-02-28T13:12:32;8.73;;;4.80;;
31836;SDS011;18401;49.344;6.240;2023-02-28T13:15:07;8.73;;;5.15;;
31836;SDS011;18401;49.344;6.240;2023-02-28T13:17:41;8.18;;;4.90;;
31836;SDS011;18401;49.344;6.240;2023-02-28T13:20:27;6.85;;;4.88;;
31836;SDS011;18401;49.344;6.240;2023-02-28T13:23:01;8.55;;;4.60;;
31836;SDS011;18401;49.344;6.240;2023-02-28T13:27:59;5.43;;;4.53;;
31836;SDS011;18401;49.344;6.240;2023-02-28T13:33:27;7.80;;;5.05;;
31836;SDS011;18401;49.344;6.240;2023-02-28T13:46:35;10.70;;;4.90;;
31836;SDS011;18401;49.344;6.240;2023-02-28T13:49:31;9.35;;;4.57;;
31836;SDS011;18401;49.344;6.240;2023-02-28T13:52:10;13.27;;;6.90;;
31836;SDS011;18401;49.344;6.240;2023-02-28T14:11:53;8.93;;;5.22;;
31836;SDS011;18401;49.344;6.240;2023-02-28T14:17:01;9.30;;;5.30;;
31836;SDS011;18401;49.344;6.240;2023-02-28T14:19:32;8.35;;;5.22;;
31836;SDS011;18401;49.344;6.240;2023-02-28T14:36:35;8.63;;;5.32;;
31836;SDS011;18401;49.344;6.240;2023-02-28T14:39:45;8.57;;;5.10;;
31836;SDS011;18401;49.344;6.240;2023-02-28T14:41:52;11.02;;;5.55;;
31836;SDS011;18401;49.344;6.240;2023-02-28T14:44:22;9.23;;;5.25;;
31836;SDS011;18401;49.344;6.240;2023-02-28T14:46:53;8.35;;;5.45;;
31836;SDS011;18401;49.344;6.240;2023-02-28T14:52:15;9.88;;;5.75;;
31836;SDS011;18401;49.344;6.240;2023-02-28T14:54:53;10.63;;;5.60;;
31836;SDS011;18401;49.344;6.240;2023-02-28T14:57:31;11.52;;;5.95;;
31836;SDS011;18401;49.344;6.240;2023-02-28T14:59:59;11.75;;;5.97;;
31836;SDS011;18401;49.344;6.240;2023-02-28T15:02:34;9.65;;;5.90;;
31836;SDS011;18401;49.344;6.240;2023-02-28T15:05:01;9.70;;;5.80;;
31836;SDS011;18401;49.344;6.240;2023-02-28T15:07:48;11.25;;;5.72;;
31836;SDS011;18401;49.344;6.240;2023-02-28T15:10:25;9.70;;;5.32;;
31836;SDS011;18401;49.344;6.240;2023-02-28T15:13:13;10.43;;;5.50;;
31836;SDS011;18401;49.344;6.240;2023-02-28T15:15:59;11.13;;;5.72;;
31836;SDS011;18401;49.344;6.240;2023-02-28T15:20:53;12.32;;;5.68;;
31836;SDS011;18401;49.344;6.240;2023-02-28T15:23:21;15.02;;;6.60;;
31836;SDS011;18401;49.344;6.240;2023-02-28T15:25:47;12.05;;;6.35;;
31836;SDS011;18401;49.344;6.240;2023-02-28T15:28:18;11.85;;;5.90;;
31836;SDS011;18401;49.344;6.240;2023-02-28T15:31:00;11.95;;;6.22;;
31836;SDS011;18401;49.344;6.240;2023-02-28T15:33:31;10.85;;;5.97;;
31836;SDS011;18401;49.344;6.240;2023-02-28T15:36:12;26.90;;;8.73;;
31836;SDS011;18401;49.344;6.240;2023-02-28T15:38:40;7.93;;;5.07;;
31836;SDS011;18401;49.344;6.240;2023-02-28T15:41:20;10.52;;;5.82;;
31836;SDS011;18401;49.344;6.240;2023-02-28T15:44:13;10.85;;;6.45;;
31836;SDS011;18401;49.344;6.240;2023-02-28T15:47:16;19.23;;;8.25;;
31836;SDS011;18401;49.344;6.240;2023-02-28T15:49:45;14.43;;;6.35;;
31836;SDS011;18401;49.344;6.240;2023-02-28T15:52:18;9.93;;;5.63;;
31836;SDS011;18401;49.344;6.240;2023-02-28T15:54:48;9.63;;;5.85;;
31836;SDS011;18401;49.344;6.240;2023-02-28T15:57:17;10.88;;;6.63;;
31836;SDS011;18401;49.344;6.240;2023-02-28T15:59:53;12.93;;;5.80;;
31836;SDS011;18401;49.344;6.240;2023-02-28T16:02:22;11.40;;;5.85;;
31836;SDS011;18401;49.344;6.240;2023-02-28T16:07:26;9.35;;;5.80;;
31836;SDS011;18401;49.344;6.240;2023-02-28T16:09:52;8.50;;;5.35;;
31836;SDS011;18401;49.344;6.240;2023-02-28T16:12:18;7.10;;;5.35;;
31836;SDS011;18401;49.344;6.240;2023-02-28T16:14:46;8.00;;;5.45;;
31836;SDS011;18401;49.344;6.240;2023-02-28T16:17:20;11.27;;;5.88;;
31836;SDS011;18401;49.344;6.240;2023-02-28T16:19:54;10.93;;;6.20;;
31836;SDS011;18401;49.344;6.240;2023-02-28T16:22:20;12.70;;;6.32;;
31836;SDS011;18401;49.344;6.240;2023-02-28T16:24:47;11.77;;;6.85;;
31836;SDS011;18401;49.344;6.240;2023-02-28T16:27:17;9.45;;;6.10;;
31836;SDS011;18401;49.344;6.240;2023-02-28T16:29:55;11.95;;;6.63;;
31836;SDS011;18401;49.344;6.240;2023-02-28T16:32:21;13.57;;;7.07;;
31836;SDS011;18401;49.344;6.240;2023-02-28T16:34:46;13.13;;;6.32;;
31836;SDS011;18401;49.344;6.240;2023-02-28T16:37:13;12.68;;;7.43;;
31836;SDS011;18401;49.344;6.240;2023-02-28T16:39:40;13.32;;;7.15;;
31836;SDS011;18401;49.344;6.240;2023-02-28T16:42:09;13.02;;;7.43;;
31836;SDS011;18401;49.344;6.240;2023-02-28T16:44:47;13.20;;;7.72;;
31836;SDS011;18401;49.344;6.240;2023-02-28T16:47:13;15.18;;;7.18;;
31836;SDS011;18401;49.344;6.240;2023-02-28T16:49:39;12.65;;;6.65;;
31836;SDS011;18401;49.344;6.240;2023-02-28T16:52:07;11.88;;;6.90;;
31836;SDS011;18401;49.344;6.240;2023-02-28T16:54:33;14.85;;;7.22;;
31836;SDS011;18401;49.344;6.240;2023-02-28T16:56:59;21.45;;;7.00;;
31836;SDS011;18401;49.344;6.240;2023-02-28T16:59:25;14.55;;;7.05;;
31836;SDS011;18401;49.344;6.240;2023-02-28T17:01:52;14.65;;;7.43;;
31836;SDS011;18401;49.344;6.240;2023-02-28T17:04:18;23.58;;;8.75;;
31836;SDS011;18401;49.344;6.240;2023-02-28T17:06:44;19.42;;;8.48;;
31836;SDS011;18401;49.344;6.240;2023-02-28T17:09:15;14.70;;;8.15;;
31836;SDS011;18401;49.344;6.240;2023-02-28T17:11:43;18.45;;;8.98;;
31836;SDS011;18401;49.344;6.240;2023-02-28T17:14:09;15.85;;;8.50;;
31836;SDS011;18401;49.344;6.240;2023-02-28T17:16:35;14.32;;;9.25;;
31836;SDS011;18401;49.344;6.240;2023-02-28T17:19:05;16.20;;;9.75;;
31836;SDS011;18401;49.344;6.240;2023-02-28T17:21:31;16.75;;;9.38;;
31836;SDS011;18401;49.344;6.240;2023-02-28T17:23:58;16.73;;;9.93;;
31836;SDS011;18401;49.344;6.240;2023-02-28T17:26:24;19.95;;;10.45;;
31836;SDS011;18401;49.344;6.240;2023-02-28T17:28:51;21.75;;;10.77;;
31836;SDS011;18401;49.344;6.240;2023-02-28T17:31:18;19.05;;;9.85;;
31836;SDS011;18401;49.344;6.240;2023-02-28T17:33:44;29.23;;;13.98;;
31836;SDS011;18401;49.344;6.240;2023-02-28T17:36:14;39.83;;;15.20;;
31836;SDS011;18401;49.344;6.240;2023-02-28T17:38:41;23.05;;;11.52;;
31836;SDS011;18401;49.344;6.240;2023-02-28T17:41:10;23.30;;;11.25;;
31836;SDS011;18401;49.344;6.240;2023-02-28T17:43:37;22.60;;;12.00;;
31836;SDS011;18401;49.344;6.240;2023-02-28T17:46:03;32.45;;;11.68;;
31836;SDS011;18401;49.344;6.240;2023-02-28T17:48:30;24.70;;;10.77;;
31836;SDS011;18401;49.344;6.240;2023-02-28T17:50:56;18.52;;;9.85;;
31836;SDS011;18401;49.344;6.240;2023-02-28T17:53:22;14.85;;;8.85;;
31836;SDS011;18401;49.344;6.240;2023-02-28T17:55:48;12.88;;;7.95;;
31836;SDS011;18401;49.344;6.240;2023-02-28T17:58:14;16.38;;;8.10;;
31836;SDS011;18401;49.344;6.240;2023-02-28T18:00:41;15.65;;;9.98;;
31836;SDS011;18401;49.344;6.240;2023-02-28T18:03:07;17.48;;;9.73;;
31836;SDS011;18401;49.344;6.240;2023-02-28T18:05:34;19.13;;;9.35;;
31836;SDS011;18401;49.344;6.240;2023-02-28T18:08:01;19.25;;;9.18;;
31836;SDS011;18401;49.344;6.240;2023-02-28T18:10:26;16.73;;;8.52;;
31836;SDS011;18401;49.344;6.240;2023-02-28T18:12:52;14.07;;;7.60;;
31836;SDS011;18401;49.344;6.240;2023-02-28T18:15:19;14.50;;;8.38;;
31836;SDS011;18401;49.344;6.240;2023-02-28T18:17:45;14.50;;;8.73;;
31836;SDS011;18401;49.344;6.240;2023-02-28T18:20:12;13.38;;;7.78;;
31836;SDS011;18401;49.344;6.240;2023-02-28T18:22:38;12.65;;;7.60;;
31836;SDS011;18401;49.344;6.240;2023-02-28T18:25:05;14.18;;;7.35;;
31836;SDS011;18401;49.344;6.240;2023-02-28T18:27:33;21.55;;;7.70;;
31836;SDS011;18401;49.344;6.240;2023-02-28T18:30:03;17.30;;;8.20;;
31836;SDS011;18401;49.344;6.240;2023-02-28T18:32:29;12.35;;;7.72;;
31836;SDS011;18401;49.344;6.240;2023-02-28T18:34:55;13.60;;;7.90;;
31836;SDS011;18401;49.344;6.240;2023-02-28T18:37:21;20.98;;;9.27;;
31836;SDS011;18401;49.344;6.240;2023-02-28T18:39:47;17.63;;;10.65;;
31836;SDS011;18401;49.344;6.240;2023-02-28T18:42:13;28.35;;;13.00;;
31836;SDS011;18401;49.344;6.240;2023-02-28T18:44:39;21.65;;;11.13;;
31836;SDS011;18401;49.344;6.240;2023-02-28T18:47:05;29.52;;;12.55;;
31836;SDS011;18401;49.344;6.240;2023-02-28T18:49:31;34.38;;;16.02;;
31836;SDS011;18401;49.344;6.240;2023-02-28T18:52:01;30.17;;;14.00;;
31836;SDS011;18401;49.344;6.240;2023-02-28T18:54:28;32.95;;;13.35;;
31836;SDS011;18401;49.344;6.240;2023-02-28T18:56:54;31.52;;;14.25;;
31836;SDS011;18401;49.344;6.240;2023-02-28T18:59:20;26.05;;;13.88;;
31836;SDS011;18401;49.344;6.240;2023-02-28T19:01:46;25.77;;;12.23;;
31836;SDS011;18401;49.344;6.240;2023-02-28T19:04:12;19.38;;;10.77;;
31836;SDS011;18401;49.344;6.240;2023-02-28T19:06:38;20.10;;;11.23;;
31836;SDS011;18401;49.344;6.240;2023-02-28T19:09:06;18.00;;;8.77;;
31836;SDS011;18401;49.344;6.240;2023-02-28T19:11:31;20.73;;;10.60;;
31836;SDS011;18401;49.344;6.240;2023-02-28T19:13:58;17.52;;;10.02;;
31836;SDS011;18401;49.344;6.240;2023-02-28T19:16:25;21.42;;;10.77;;
31836;SDS011;18401;49.344;6.240;2023-02-28T19:18:54;27.88;;;13.57;;
31836;SDS011;18401;49.344;6.240;2023-02-28T19:21:20;22.35;;;11.65;;
31836;SDS011;18401;49.344;6.240;2023-02-28T19:23:49;22.13;;;11.23;;
31836;SDS011;18401;49.344;6.240;2023-02-28T19:26:20;22.95;;;11.25;;
31836;SDS011;18401;49.344;6.240;2023-02-28T19:28:47;21.58;;;10.65;;
31836;SDS011;18401;49.344;6.240;2023-02-28T19:31:14;19.88;;;11.30;;
31836;SDS011;18401;49.344;6.240;2023-02-28T19:33:42;20.35;;;11.90;;
31836;SDS011;18401;49.344;6.240;2023-02-28T19:36:08;29.58;;;13.73;;
31836;SDS011;18401;49.344;6.240;2023-02-28T19:38:36;23.33;;;12.98;;
31836;SDS011;18401;49.344;6.240;2023-02-28T19:41:02;23.63;;;11.80;;
31836;SDS011;18401;49.344;6.240;2023-02-28T19:43:30;21.27;;;10.43;;
31836;SDS011;18401;49.344;6.240;2023-02-28T19:45:56;17.73;;;9.77;;
31836;SDS011;18401;49.344;6.240;2023-02-28T19:48:22;17.90;;;9.90;;
31836;SDS011;18401;49.344;6.240;2023-02-28T19:50:49;17.27;;;9.75;;
31836;SDS011;18401;49.344;6.240;2023-02-28T19:53:15;19.85;;;9.73;;
31836;SDS011;18401;49.344;6.240;2023-02-28T19:55:40;16.60;;;10.13;;
31836;SDS011;18401;49.344;6.240;2023-02-28T19:58:06;17.30;;;9.57;;